Time;durP1;ratioP1;P1;durP2;ratioP2;P2;SDS_P1;SDS_P2;PMS_P1;PMS_P2;Temp;Humidity;BMP_temperature;BMP_pressure;BME280_temperature;BME280_humidity;BME280_pressure;Samples;Min_cycle;Max_cycle;Signal;HPM_P1;HPM_P2
2022/04/22 00:00:02;;;;;;;;;;;13.00;66.10;;;;;;4983678;28;20336;-85
2022/04/22 00:02:31;;;;;;;;;;;13.10;66.20;;;;;;4975804;28;20274;-84
2022/04/22 00:04:56;;;;;;;;;;;13.10;66.20;;;;;;4953366;28;19971;-84
2022/04/22 00:07:22;;;;;;;;;;;13.10;66.10;;;;;;4986081;28;20000;-85
2022/04/22 00:09:48;;;;;;;;;;;13.10;66.10;;;;;;4955378;28;19924;-84
2022/04/22 00:12:14;;;;;;;;;;;13.00;66.10;;;;;;4970748;28;19917;-85
2022/04/22 00:14:40;;;;;;;;;;;13.00;66.10;;;;;;4940968;28;19922;-84
2022/04/22 00:17:06;;;;;;;;;;;13.00;66.10;;;;;;4942171;28;19917;-84
2022/04/22 00:19:32;;;;;;;;;;;13.00;66.10;;;;;;4973494;28;19924;-83
2022/04/22 00:21:57;;;;;;;;;;;13.00;66.10;;;;;;4972149;28;19913;-83
2022/04/22 00:24:23;;;;;;;;;;;13.00;66.10;;;;;;4958130;28;20372;-84
2022/04/22 00:26:49;;;;;;;;;;;13.00;66.00;;;;;;4972469;28;19952;-83
2022/04/22 00:29:15;;;;;;;;;;;13.00;66.00;;;;;;4972771;28;19917;-83
2022/04/22 00:31:41;;;;;;;;;;;13.00;65.90;;;;;;4973008;28;19949;-81
2022/04/22 00:34:07;;;;;;;;;;;13.00;66.00;;;;;;4957353;28;19918;-83
2022/04/22 00:36:32;;;;;;;;;;;13.00;66.00;;;;;;4973783;28;20423;-83
2022/04/22 00:38:59;;;;;;;;;;;13.00;66.00;;;;;;4957015;28;20335;-84
2022/04/22 00:41:24;;;;;;;;;;;13.00;66.00;;;;;;4956640;28;20008;-83
2022/04/22 00:43:50;;;;;;;;;;;13.00;66.00;;;;;;4957288;28;19972;-84
2022/04/22 00:46:16;;;;;;;;;;;13.00;66.00;;;;;;4971693;28;20000;-83
2022/04/22 00:48:43;;;;;;;;;;;13.00;66.00;;;;;;4972836;28;19925;-83
2022/04/22 00:51:10;;;;;;;;;;;13.00;66.00;;;;;;4955116;28;19940;-83
2022/04/22 00:53:36;;;;;;;;;;;13.00;66.00;;;;;;4956759;28;20000;-83
2022/04/22 00:56:04;;;;;;;;;;;13.00;66.00;;;;;;4972502;28;19968;-83
2022/04/22 00:58:30;;;;;;;;;;;13.00;66.00;;;;;;4939988;28;19917;-83
2022/04/22 01:00:56;;;;;;;;;;;13.00;66.00;;;;;;4956136;28;19914;-85
2022/04/22 01:03:22;;;;;;;;;;;13.00;66.00;;;;;;4955586;28;19918;-83
2022/04/22 01:11:20;;;;;;;;;;;13.00;65.90;;;;;;4955128;28;19977;-83
2022/04/22 01:13:47;;;;;;;;;;;13.00;65.90;;;;;;4956145;28;19921;-84
2022/04/22 01:16:12;;;;;;;;;;;13.00;65.90;;;;;;4951682;28;19917;-84
2022/04/22 01:18:38;;;;;;;;;;;13.00;66.00;;;;;;4972390;28;20293;-83
2022/04/22 01:21:04;;;;;;;;;;;13.00;65.90;;;;;;4971929;28;20403;-84
2022/04/22 01:23:31;;;;;;;;;;;13.00;65.90;;;;;;4955821;28;19922;-83
2022/04/22 01:25:57;;;;;;;;;;;13.00;65.90;;;;;;4971880;28;20008;-83
2022/04/22 01:28:27;;;;;;;;;;;12.90;66.00;;;;;;4956506;28;20032;-83
2022/04/22 01:30:54;;;;;;;;;;;13.00;66.00;;;;;;4940325;28;19924;-83
2022/04/22 01:33:20;;;;;;;;;;;13.00;65.90;;;;;;4948403;28;19976;-83
2022/04/22 01:35:45;;;;;;;;;;;13.00;66.00;;;;;;4940551;28;20616;-83
2022/04/22 01:38:11;;;;;;;;;;;12.90;66.00;;;;;;4956178;28;19961;-83
2022/04/22 01:40:37;;;;;;;;;;;13.00;66.00;;;;;;4955980;28;19918;-83
2022/04/22 01:43:04;;;;;;;;;;;13.00;66.00;;;;;;4968673;28;20400;-82
2022/04/22 01:45:30;;;;;;;;;;;12.90;66.00;;;;;;4963341;28;19922;-81
2022/04/22 01:47:56;;;;;;;;;;;13.00;66.00;;;;;;4955382;28;19921;-83
2022/04/22 01:50:23;;;;;;;;;;;13.00;66.00;;;;;;4971912;28;19929;-84
2022/04/22 01:52:49;;;;;;;;;;;12.90;66.00;;;;;;4941937;28;19983;-84
2022/04/22 01:55:15;;;;;;;;;;;13.00;66.10;;;;;;4971539;28;19972;-84
2022/04/22 01:57:41;;;;;;;;;;;12.90;66.00;;;;;;4956367;28;19920;-85
2022/04/22 02:00:08;;;;;;;;;;;13.00;66.10;;;;;;4938834;28;19921;-84
2022/04/22 02:02:34;;;;;;;;;;;12.90;66.00;;;;;;4955316;28;19925;-83
2022/04/22 02:05:00;;;;;;;;;;;13.00;66.10;;;;;;4954767;28;19925;-84
2022/04/22 02:07:26;;;;;;;;;;;13.00;66.10;;;;;;4939382;28;20022;-83
2022/04/22 02:09:52;;;;;;;;;;;12.90;66.00;;;;;;4954460;28;19988;-81
2022/04/22 02:12:18;;;;;;;;;;;12.90;66.00;;;;;;4971666;28;20424;-82
2022/04/22 02:14:44;;;;;;;;;;;13.00;66.10;;;;;;4971313;28;19917;-82
2022/04/22 02:17:10;;;;;;;;;;;12.90;66.00;;;;;;4954144;28;19918;-83
2022/04/22 02:19:36;;;;;;;;;;;12.90;66.00;;;;;;4959805;28;19917;-83
2022/04/22 02:22:01;;;;;;;;;;;12.90;66.00;;;;;;4961831;28;19984;-84
2022/04/22 02:24:27;;;;;;;;;;;12.90;66.00;;;;;;4939818;28;20004;-84
2022/04/22 02:29:37;;;;;;;;;;;12.90;66.20;;;;;;4955683;28;19971;-84
2022/04/22 02:32:04;;;;;;;;;;;12.90;66.10;;;;;;4954660;28;20463;-84
2022/04/22 02:34:31;;;;;;;;;;;12.90;66.20;;;;;;4954082;28;20314;-84
2022/04/22 02:36:56;;;;;;;;;;;12.90;66.20;;;;;;4939417;28;19925;-84
2022/04/22 02:39:22;;;;;;;;;;;12.90;66.20;;;;;;4971504;28;19925;-84
2022/04/22 02:47:17;;;;;;;;;;;12.90;66.30;;;;;;4954751;28;20380;-84
2022/04/22 02:49:44;;;;;;;;;;;12.90;66.40;;;;;;4954485;28;19930;-83
2022/04/22 02:52:10;;;;;;;;;;;12.90;66.40;;;;;;4970109;28;19918;-83
2022/04/22 02:54:36;;;;;;;;;;;12.90;66.50;;;;;;4967590;28;19937;-83
2022/04/22 02:57:02;;;;;;;;;;;12.90;66.50;;;;;;4969958;28;19930;-83
2022/04/22 02:59:29;;;;;;;;;;;12.90;66.70;;;;;;4970219;28;20001;-83
2022/04/22 03:01:55;;;;;;;;;;;12.90;67.30;;;;;;4986590;28;20008;-82
2022/04/22 03:04:21;;;;;;;;;;;12.90;66.70;;;;;;4954051;28;19949;-82
2022/04/22 03:06:47;;;;;;;;;;;12.90;66.60;;;;;;4955174;28;19918;-83
2022/04/22 03:09:13;;;;;;;;;;;12.90;66.70;;;;;;4969932;28;19953;-82
2022/04/22 03:11:39;;;;;;;;;;;12.90;66.60;;;;;;4986173;28;19921;-82
2022/04/22 03:14:05;;;;;;;;;;;12.90;66.60;;;;;;4986267;28;19964;-82
2022/04/22 03:16:31;;;;;;;;;;;12.90;66.60;;;;;;4969098;28;19921;-82
2022/04/22 03:18:58;;;;;;;;;;;12.90;66.60;;;;;;4954246;28;19913;-83
2022/04/22 03:21:24;;;;;;;;;;;12.90;66.60;;;;;;4970640;28;19913;-83
2022/04/22 03:23:50;;;;;;;;;;;12.90;66.60;;;;;;4970011;28;19924;-83
2022/04/22 03:26:16;;;;;;;;;;;12.90;66.50;;;;;;4969567;28;19928;-83
2022/04/22 03:28:42;;;;;;;;;;;12.90;66.50;;;;;;4966080;28;19961;-83
2022/04/22 03:31:08;;;;;;;;;;;13.00;66.50;;;;;;4968275;28;19960;-83
2022/04/22 03:33:34;;;;;;;;;;;12.90;66.50;;;;;;4955522;28;19910;-83
2022/04/22 03:36:00;;;;;;;;;;;12.90;66.50;;;;;;4966741;28;19929;-85
2022/04/22 03:38:27;;;;;;;;;;;12.90;66.60;;;;;;4971629;28;19917;-84
2022/04/22 03:40:53;;;;;;;;;;;12.90;66.60;;;;;;4960848;28;19918;-85
2022/04/22 03:43:20;;;;;;;;;;;12.90;66.60;;;;;;4954339;28;20584;-85
2022/04/22 03:45:46;;;;;;;;;;;12.90;66.60;;;;;;4970584;28;19917;-84
2022/04/22 03:48:13;;;;;;;;;;;12.90;66.60;;;;;;4972731;28;19952;-84
2022/04/22 03:50:48;;;;;;;;;;;12.90;66.50;;;;;;4974815;28;20372;-88
2022/04/22 03:53:14;;;;;;;;;;;12.90;66.40;;;;;;4940691;28;19917;-85
2022/04/22 03:55:40;;;;;;;;;;;12.90;66.40;;;;;;4992251;28;19953;-90
2022/04/22 03:58:12;;;;;;;;;;;12.90;66.40;;;;;;4945349;28;20397;-90
2022/04/22 04:00:46;;;;;;;;;;;12.90;66.50;;;;;;4960359;28;19945;-90
2022/04/22 04:03:13;;;;;;;;;;;12.90;66.40;;;;;;4957534;28;19952;-88
2022/04/22 04:05:39;;;;;;;;;;;12.90;66.40;;;;;;4974180;28;19930;-88
2022/04/22 04:08:05;;;;;;;;;;;13.00;66.40;;;;;;4981035;28;19918;-85
2022/04/22 04:16:00;;;;;;;;;;;13.00;66.10;;;;;;4954184;28;19918;-88
2022/04/22 04:18:31;;;;;;;;;;;13.00;66.10;;;;;;4973861;28;19921;-86
2022/04/22 04:23:41;;;;;;;;;;;13.00;66.10;;;;;;4953020;28;19917;-85
2022/04/22 04:26:07;;;;;;;;;;;13.00;66.10;;;;;;4989994;28;19987;-84
2022/04/22 04:28:34;;;;;;;;;;;13.00;66.00;;;;;;4988959;28;20002;-84
2022/04/22 04:30:59;;;;;;;;;;;13.00;65.90;;;;;;4972783;28;20084;-87
2022/04/22 04:33:25;;;;;;;;;;;12.90;65.90;;;;;;4957236;28;20004;-87
2022/04/22 04:35:51;;;;;;;;;;;13.00;65.90;;;;;;4972228;28;19922;-89
2022/04/22 04:38:17;;;;;;;;;;;13.00;65.90;;;;;;4971402;28;19944;-88
2022/04/22 04:40:44;;;;;;;;;;;13.00;65.80;;;;;;4973590;28;19922;-85
2022/04/22 04:43:10;;;;;;;;;;;13.00;65.70;;;;;;4972234;28;19976;-89
2022/04/22 04:45:36;;;;;;;;;;;13.00;65.70;;;;;;4981624;28;19921;-85
2022/04/22 04:48:02;;;;;;;;;;;13.00;65.60;;;;;;4968940;28;19918;-89
2022/04/22 04:50:28;;;;;;;;;;;13.00;65.60;;;;;;4955895;28;20630;-80
2022/04/22 04:52:54;;;;;;;;;;;13.00;65.50;;;;;;4950497;28;19989;-81
2022/04/22 04:55:20;;;;;;;;;;;13.00;65.40;;;;;;4950183;28;19968;-82
2022/04/22 04:57:46;;;;;;;;;;;13.00;66.00;;;;;;4933422;29;19942;-80
2022/04/22 05:00:13;;;;;;;;;;;13.00;65.30;;;;;;4950372;29;19945;-84
2022/04/22 05:02:39;;;;;;;;;;;13.10;65.40;;;;;;4950967;28;19918;-83
2022/04/22 05:05:06;;;;;;;;;;;13.10;65.40;;;;;;4949999;28;20336;-84
2022/04/22 05:07:55;;;;;;;;;;;13.10;65.30;;;;;;4965153;28;20432;-81
2022/04/22 05:10:20;;;;;;;;;;;13.10;65.30;;;;;;4949097;29;19957;-87
2022/04/22 05:12:47;;;;;;;;;;;13.10;65.20;;;;;;4950258;29;19972;-83
2022/04/22 05:15:14;;;;;;;;;;;13.20;65.30;;;;;;4949660;28;20313;-83
2022/04/22 05:17:40;;;;;;;;;;;13.10;65.20;;;;;;4932703;29;20274;-84
2022/04/22 05:20:07;;;;;;;;;;;13.20;65.20;;;;;;4950418;28;19918;-81
2022/04/22 05:22:32;;;;;;;;;;;13.20;65.20;;;;;;4948704;28;19923;-84
2022/04/22 05:24:58;;;;;;;;;;;13.20;65.10;;;;;;4949553;28;19973;-82
2022/04/22 05:27:24;;;;;;;;;;;13.20;65.10;;;;;;4964823;28;19922;-81
2022/04/22 05:32:37;;;;;;;;;;;13.30;65.10;;;;;;4948814;28;20013;-81
2022/04/22 05:35:08;;;;;;;;;;;13.30;65.00;;;;;;4947498;28;19922;-81
2022/04/22 05:37:43;;;;;;;;;;;13.30;65.00;;;;;;4931810;29;20436;-80
2022/04/22 05:40:09;;;;;;;;;;;13.40;65.00;;;;;;4965555;28;20384;-82
2022/04/22 05:42:37;;;;;;;;;;;13.40;64.90;;;;;;4949408;29;19914;-82
2022/04/22 05:45:07;;;;;;;;;;;13.40;64.80;;;;;;4932307;29;19942;-82
2022/04/22 05:47:36;;;;;;;;;;;13.50;64.80;;;;;;4927936;29;19922;-81
2022/04/22 05:50:02;;;;;;;;;;;13.50;64.60;;;;;;4964422;28;19930;-82
2022/04/22 05:52:28;;;;;;;;;;;13.60;64.60;;;;;;4949285;28;20316;-81
2022/04/22 05:54:54;;;;;;;;;;;13.60;64.50;;;;;;4949088;28;19914;-81
2022/04/22 05:57:20;;;;;;;;;;;13.70;64.50;;;;;;4949486;29;20216;-82
2022/04/22 05:59:48;;;;;;;;;;;13.70;64.40;;;;;;4948370;29;19965;-81
2022/04/22 06:02:14;;;;;;;;;;;13.80;64.40;;;;;;4947853;28;19942;-82
2022/04/22 06:04:39;;;;;;;;;;;13.70;64.30;;;;;;4949053;28;20341;-82
2022/04/22 06:07:05;;;;;;;;;;;13.80;64.20;;;;;;4938782;28;19914;-81
2022/04/22 06:12:15;;;;;;;;;;;13.80;65.30;;;;;;4947912;29;19949;-80
2022/04/22 06:14:41;;;;;;;;;;;13.80;65.60;;;;;;4947675;28;20016;-80
2022/04/22 06:17:07;;;;;;;;;;;13.80;65.90;;;;;;4948021;29;19929;-81
2022/04/22 06:19:33;;;;;;;;;;;13.80;66.00;;;;;;4948397;29;19962;-81
2022/04/22 06:21:59;;;;;;;;;;;13.80;65.90;;;;;;4916799;28;19985;-80
2022/04/22 06:24:25;;;;;;;;;;;13.80;66.00;;;;;;4949601;29;19997;-79
2022/04/22 06:26:50;;;;;;;;;;;13.70;66.10;;;;;;4948169;28;19918;-79
2022/04/22 06:29:16;;;;;;;;;;;13.70;66.20;;;;;;4931587;29;19941;-80
2022/04/22 06:31:42;;;;;;;;;;;13.70;66.30;;;;;;4946278;29;20421;-80
2022/04/22 06:34:08;;;;;;;;;;;13.70;66.30;;;;;;4949742;28;19915;-81
2022/04/22 06:36:34;;;;;;;;;;;13.70;66.30;;;;;;4915673;29;19920;-81
2022/04/22 06:39:01;;;;;;;;;;;13.80;66.40;;;;;;4948429;28;19941;-81
2022/04/22 06:46:57;;;;;;;;;;;13.80;66.30;;;;;;4945221;28;19929;-80
2022/04/22 06:49:23;;;;;;;;;;;13.80;66.20;;;;;;4932031;28;20404;-82
2022/04/22 06:51:50;;;;;;;;;;;13.80;66.20;;;;;;4946309;29;20535;-82
2022/04/22 06:54:17;;;;;;;;;;;13.80;66.20;;;;;;4948399;28;20385;-82
2022/04/22 06:56:44;;;;;;;;;;;13.80;66.10;;;;;;4955177;28;20362;-81
2022/04/22 06:59:10;;;;;;;;;;;13.80;66.10;;;;;;4946627;28;19918;-82
2022/04/22 07:01:36;;;;;;;;;;;13.80;66.10;;;;;;4946973;29;19919;-81
2022/04/22 07:04:02;;;;;;;;;;;13.80;66.00;;;;;;4923670;28;19914;-80
2022/04/22 07:06:28;;;;;;;;;;;13.80;65.90;;;;;;4915827;29;19923;-81
2022/04/22 07:08:54;;;;;;;;;;;13.90;65.90;;;;;;4922202;29;19930;-81
2022/04/22 07:11:20;;;;;;;;;;;13.90;65.90;;;;;;4947025;28;19934;-82
2022/04/22 07:13:46;;;;;;;;;;;13.90;65.90;;;;;;4930827;29;19918;-81
2022/04/22 07:16:14;;;;;;;;;;;13.90;65.90;;;;;;4947698;28;19918;-81
2022/04/22 07:18:40;;;;;;;;;;;13.90;66.00;;;;;;4946819;29;19915;-81
2022/04/22 07:21:06;;;;;;;;;;;13.80;65.90;;;;;;4949709;28;20400;-81
2022/04/22 07:23:32;;;;;;;;;;;13.90;65.80;;;;;;4950428;29;19992;-80
2022/04/22 07:25:58;;;;;;;;;;;13.90;66.30;;;;;;4951850;28;19977;-80
2022/04/22 07:28:25;;;;;;;;;;;13.90;65.70;;;;;;4934375;29;19918;-80
2022/04/22 07:30:51;;;;;;;;;;;13.90;65.70;;;;;;4935768;28;20394;-79
2022/04/22 07:33:17;;;;;;;;;;;13.90;66.20;;;;;;4952433;29;19942;-80
2022/04/22 07:35:43;;;;;;;;;;;13.90;65.50;;;;;;4952378;28;20412;-80
2022/04/22 07:38:12;;;;;;;;;;;13.90;66.20;;;;;;4947228;28;20025;-81
2022/04/22 07:40:40;;;;;;;;;;;14.00;65.50;;;;;;4951319;29;19978;-81
2022/04/22 07:48:34;;;;;;;;;;;14.00;65.40;;;;;;4950323;28;19918;-80
2022/04/22 07:51:01;;;;;;;;;;;14.00;65.30;;;;;;4934741;28;19986;-80
2022/04/22 07:57:14;;;;;;;;;;;14.10;65.40;;;;;;4939360;28;19917;-80
2022/04/22 07:59:41;;;;;;;;;;;14.00;65.30;;;;;;4970913;28;19973;-80
2022/04/22 08:02:08;;;;;;;;;;;14.00;65.30;;;;;;4985621;28;20373;-79
2022/04/22 08:04:34;;;;;;;;;;;14.00;65.30;;;;;;4986398;28;19922;-82
2022/04/22 08:07:01;;;;;;;;;;;14.00;65.30;;;;;;4971392;28;19914;-81
2022/04/22 08:09:27;;;;;;;;;;;14.00;65.40;;;;;;4972242;28;20005;-80
2022/04/22 08:11:52;;;;;;;;;;;14.00;65.50;;;;;;4971084;28;20020;-80
2022/04/22 08:14:18;;;;;;;;;;;14.00;65.50;;;;;;4970184;28;19964;-82
2022/04/22 08:16:44;;;;;;;;;;;14.00;65.50;;;;;;4969628;28;19924;-81
2022/04/22 08:19:10;;;;;;;;;;;14.10;65.40;;;;;;4970310;28;19922;-81
2022/04/22 08:21:35;;;;;;;;;;;14.10;65.30;;;;;;4970069;28;20017;-81
2022/04/22 08:24:02;;;;;;;;;;;14.10;65.40;;;;;;4970052;28;19957;-80
2022/04/22 08:26:31;;;;;;;;;;;14.20;65.40;;;;;;4969828;28;20384;-79
2022/04/22 08:28:57;;;;;;;;;;;14.10;65.30;;;;;;4968971;28;20451;-79
2022/04/22 08:31:23;;;;;;;;;;;14.20;65.30;;;;;;4968757;28;19945;-80
2022/04/22 08:33:49;;;;;;;;;;;14.20;65.20;;;;;;4969889;28;19918;-81
2022/04/22 08:36:15;;;;;;;;;;;14.20;65.10;;;;;;4969013;28;19989;-80
2022/04/22 08:38:41;;;;;;;;;;;14.20;65.10;;;;;;4970251;28;19926;-80
2022/04/22 08:41:09;;;;;;;;;;;14.30;65.00;;;;;;4969507;28;20003;-80
2022/04/22 08:43:37;;;;;;;;;;;14.40;64.90;;;;;;4966721;28;20448;-80
2022/04/22 08:46:02;;;;;;;;;;;14.40;64.80;;;;;;4964947;28;19949;-81
2022/04/22 08:51:15;;;;;;;;;;;14.40;64.60;;;;;;4964938;28;19997;-81
2022/04/22 08:53:43;;;;;;;;;;;14.40;64.40;;;;;;4949373;28;19961;-83
2022/04/22 08:56:10;;;;;;;;;;;14.40;64.30;;;;;;4950654;28;19929;-80
2022/04/22 08:58:36;;;;;;;;;;;14.50;64.20;;;;;;4947992;28;20412;-80
2022/04/22 09:01:02;;;;;;;;;;;14.50;64.20;;;;;;4948871;28;19949;-81
2022/04/22 09:03:28;;;;;;;;;;;14.50;64.00;;;;;;4950248;29;19926;-81
2022/04/22 09:05:58;;;;;;;;;;;14.50;64.00;;;;;;4949502;28;19930;-80
2022/04/22 09:08:25;;;;;;;;;;;14.50;64.00;;;;;;4949096;28;19922;-82
2022/04/22 09:10:54;;;;;;;;;;;14.50;64.00;;;;;;4948692;28;19919;-82
2022/04/22 09:13:38;;;;;;;;;;;14.50;64.00;;;;;;4949386;28;20486;-79
2022/04/22 09:16:04;;;;;;;;;;;14.50;63.90;;;;;;4949066;28;19914;-81
2022/04/22 09:18:30;;;;;;;;;;;14.50;63.90;;;;;;4949373;29;19917;-80
2022/04/22 09:20:56;;;;;;;;;;;14.60;63.90;;;;;;4947878;29;19918;-81
2022/04/22 09:23:30;;;;;;;;;;;14.60;63.90;;;;;;4949225;28;20010;-80
2022/04/22 09:25:56;;;;;;;;;;;14.60;63.80;;;;;;4948498;28;20342;-80
2022/04/22 09:28:23;;;;;;;;;;;14.60;63.80;;;;;;4956744;28;19922;-80
2022/04/22 09:31:15;;;;;;;;;;;14.60;63.80;;;;;;4950123;29;19918;-80
2022/04/22 09:33:41;;;;;;;;;;;14.60;63.60;;;;;;4929260;29;20024;-81
2022/04/22 09:44:59;;;;;;;;;;;14.60;63.50;;;;;;4948190;28;19922;-81
2022/04/22 09:47:26;;;;;;;;;;;14.70;63.50;;;;;;4938522;29;20385;-80
2022/04/22 09:49:52;;;;;;;;;;;14.70;63.40;;;;;;4937013;28;20374;-81
2022/04/22 09:52:25;;;;;;;;;;;14.70;63.40;;;;;;4949269;28;19919;-81
2022/04/22 09:54:58;;;;;;;;;;;14.80;63.50;;;;;;4948727;29;20025;-81
2022/04/22 09:57:23;;;;;;;;;;;14.80;63.40;;;;;;4948916;29;19922;-81
2022/04/22 09:59:51;;;;;;;;;;;14.90;63.30;;;;;;4968425;28;19973;-82
2022/04/22 10:02:21;;;;;;;;;;;14.90;63.20;;;;;;4950139;28;19972;-80
2022/04/22 10:04:48;;;;;;;;;;;15.00;63.20;;;;;;4963586;28;20010;-80
2022/04/22 10:07:16;;;;;;;;;;;15.00;63.10;;;;;;4958684;28;20187;-81
2022/04/22 10:09:44;;;;;;;;;;;15.10;62.80;;;;;;4950844;29;20377;-80
2022/04/22 10:12:12;;;;;;;;;;;15.10;62.50;;;;;;4952080;28;19922;-81
2022/04/22 10:14:39;;;;;;;;;;;15.20;62.40;;;;;;4968831;28;19918;-80
2022/04/22 10:17:05;;;;;;;;;;;15.20;62.10;;;;;;4930924;29;19918;-79
2022/04/22 10:19:32;;;;;;;;;;;15.30;62.00;;;;;;4957912;28;19918;-79
2022/04/22 10:21:58;;;;;;;;;;;15.30;61.70;;;;;;4953268;28;19914;-80
2022/04/22 10:24:25;;;;;;;;;;;15.40;61.50;;;;;;4956710;28;19970;-80
2022/04/22 10:26:51;;;;;;;;;;;15.40;61.10;;;;;;4953040;28;19925;-79
2022/04/22 10:29:18;;;;;;;;;;;15.40;61.60;;;;;;4954380;28;19918;-80
2022/04/22 10:31:43;;;;;;;;;;;15.40;61.00;;;;;;4953636;29;19919;-79
2022/04/22 10:34:10;;;;;;;;;;;15.40;60.90;;;;;;4952862;28;20388;-78
2022/04/22 10:36:37;;;;;;;;;;;15.40;60.90;;;;;;4952949;28;20034;-78
2022/04/22 10:39:04;;;;;;;;;;;15.30;60.80;;;;;;4929022;29;19922;-80
2022/04/22 10:41:33;;;;;;;;;;;15.30;60.90;;;;;;4964412;28;19945;-80
2022/04/22 10:49:36;;;;;;;;;;;15.20;61.00;;;;;;4956853;28;20468;-82
2022/04/22 10:52:09;;;;;;;;;;;15.10;61.00;;;;;;4986736;28;19940;-80
2022/04/22 10:54:53;;;;;;;;;;;15.10;61.10;;;;;;4937974;28;20380;-81
2022/04/22 10:57:23;;;;;;;;;;;15.10;61.10;;;;;;4984689;28;20435;-81
2022/04/22 11:00:05;;;;;;;;;;;15.10;61.00;;;;;;4969191;28;19971;-81
2022/04/22 11:02:31;;;;;;;;;;;15.00;61.00;;;;;;4969079;28;19924;-80
2022/04/22 11:05:25;;;;;;;;;;;15.00;61.00;;;;;;4969789;28;20381;-80
2022/04/22 11:07:57;;;;;;;;;;;15.00;61.00;;;;;;4985181;28;20485;-81
2022/04/22 11:10:49;;;;;;;;;;;15.00;61.00;;;;;;4951353;28;20316;-81
2022/04/22 11:13:34;;;;;;;;;;;15.00;61.00;;;;;;4985930;28;19922;-80
2022/04/22 11:16:06;;;;;;;;;;;15.00;61.00;;;;;;4953749;28;19944;-81
2022/04/22 11:18:33;;;;;;;;;;;15.10;61.00;;;;;;4970314;28;20794;-80
2022/04/22 11:21:05;;;;;;;;;;;15.10;60.90;;;;;;4987647;28;19972;-78
2022/04/22 11:23:35;;;;;;;;;;;15.10;60.90;;;;;;4985989;28;19922;-78
2022/04/22 11:26:01;;;;;;;;;;;15.00;60.80;;;;;;4987673;28;19925;-79
2022/04/22 11:28:28;;;;;;;;;;;15.00;60.60;;;;;;4985291;28;19922;-81
2022/04/22 11:30:54;;;;;;;;;;;15.00;60.60;;;;;;4987734;28;19918;-81
2022/04/22 11:33:23;;;;;;;;;;;15.00;60.70;;;;;;4987940;28;20371;-80
2022/04/22 11:35:52;;;;;;;;;;;15.00;60.60;;;;;;4987019;28;19957;-80
2022/04/22 11:38:18;;;;;;;;;;;15.00;60.70;;;;;;4953700;28;19921;-81
2022/04/22 11:40:47;;;;;;;;;;;15.00;60.70;;;;;;4978038;28;19929;-78
2022/04/22 11:43:16;;;;;;;;;;;15.00;60.70;;;;;;4970444;28;19933;-83
2022/04/22 11:45:42;;;;;;;;;;;15.00;61.30;;;;;;4970165;28;19965;-83
2022/04/22 11:48:09;;;;;;;;;;;15.00;61.40;;;;;;4969411;28;20476;-81
2022/04/22 11:50:39;;;;;;;;;;;15.10;61.30;;;;;;4986436;28;19930;-80
2022/04/22 11:53:14;;;;;;;;;;;15.10;61.10;;;;;;4963372;28;19955;-79
2022/04/22 11:55:44;;;;;;;;;;;15.10;61.00;;;;;;4969776;28;19922;-80
2022/04/22 11:58:10;;;;;;;;;;;15.10;60.80;;;;;;4952676;28;19921;-80
2022/04/22 12:06:11;;;;;;;;;;;15.10;60.60;;;;;;4985500;28;20324;-82
2022/04/22 12:08:49;;;;;;;;;;;15.10;60.60;;;;;;4987594;28;19981;-82
2022/04/22 12:11:16;;;;;;;;;;;15.00;60.50;;;;;;4988743;28;20316;-80
2022/04/22 12:13:42;;;;;;;;;;;15.10;60.50;;;;;;4971798;28;19929;-79
2022/04/22 12:16:07;;;;;;;;;;;15.10;60.40;;;;;;4972949;28;19924;-79
2022/04/22 12:18:34;;;;;;;;;;;15.10;60.50;;;;;;4988209;28;19922;-78
2022/04/22 12:21:01;;;;;;;;;;;15.00;60.40;;;;;;4990179;28;19942;-81
2022/04/22 12:23:38;;;;;;;;;;;15.00;60.50;;;;;;4969050;28;19929;-81
2022/04/22 12:26:05;;;;;;;;;;;15.00;60.50;;;;;;4969413;28;19926;-81
2022/04/22 12:28:30;;;;;;;;;;;15.00;60.40;;;;;;4956127;28;19922;-79
2022/04/22 12:30:57;;;;;;;;;;;15.00;60.40;;;;;;4990339;28;20448;-81
2022/04/22 12:33:24;;;;;;;;;;;15.00;60.40;;;;;;4990551;28;19948;-81
2022/04/22 12:36:04;;;;;;;;;;;15.00;60.40;;;;;;4989496;28;19926;-79
2022/04/22 12:38:30;;;;;;;;;;;15.00;60.40;;;;;;4967313;28;19933;-80
2022/04/22 12:40:57;;;;;;;;;;;15.00;60.40;;;;;;4951049;28;20308;-79
2022/04/22 12:43:31;;;;;;;;;;;14.90;60.30;;;;;;4988379;28;20424;-80
2022/04/22 12:52:09;;;;;;;;;;;14.90;60.50;;;;;;4989836;28;19969;-78
2022/04/22 12:54:35;;;;;;;;;;;14.90;60.50;;;;;;4990274;28;20381;-79
2022/04/22 12:57:01;;;;;;;;;;;14.90;60.50;;;;;;4972168;28;19922;-79
2022/04/22 12:59:43;;;;;;;;;;;14.90;60.60;;;;;;4956496;28;19928;-82
2022/04/22 13:02:10;;;;;;;;;;;14.90;60.70;;;;;;4956197;28;20080;-80
2022/04/22 13:05:08;;;;;;;;;;;14.80;60.70;;;;;;4973075;28;19929;-79
2022/04/22 13:07:41;;;;;;;;;;;14.90;60.80;;;;;;4932257;28;20457;-80
2022/04/22 13:10:08;;;;;;;;;;;14.80;60.90;;;;;;4944542;28;20395;-81
2022/04/22 13:12:39;;;;;;;;;;;14.90;61.50;;;;;;4939986;29;20385;-81
2022/04/22 13:15:05;;;;;;;;;;;14.80;60.90;;;;;;4944913;28;19922;-78
2022/04/22 13:17:31;;;;;;;;;;;14.80;61.00;;;;;;4915725;29;19922;-80
2022/04/22 13:19:57;;;;;;;;;;;14.80;61.10;;;;;;4928993;29;19957;-80
2022/04/22 13:22:22;;;;;;;;;;;14.90;61.20;;;;;;4915486;29;20391;-80
2022/04/22 13:24:48;;;;;;;;;;;14.80;61.20;;;;;;4917982;29;20531;-84
2022/04/22 13:27:14;;;;;;;;;;;14.90;61.80;;;;;;4942192;28;19922;-80
2022/04/22 13:29:40;;;;;;;;;;;15.00;62.40;;;;;;4942290;28;19929;-80
2022/04/22 13:32:07;;;;;;;;;;;15.10;62.70;;;;;;4943303;28;20021;-79
2022/04/22 13:34:33;;;;;;;;;;;15.30;63.00;;;;;;4931184;29;19930;-81
2022/04/22 13:36:59;;;;;;;;;;;15.30;62.60;;;;;;4930326;28;20487;-81
2022/04/22 13:39:25;;;;;;;;;;;15.30;62.00;;;;;;4943875;28;19915;-82
2022/04/22 13:41:51;;;;;;;;;;;15.30;61.80;;;;;;4943288;28;19925;-83
2022/04/22 13:52:21;;;;;;;;;;;15.30;61.50;;;;;;4954113;28;19979;-83
2022/04/22 13:52:31;;;;;;;;;;;15.40;61.60;;;;;;4949041;28;19918;-82
2022/04/22 13:54:57;;;;;;;;;;;15.40;61.60;;;;;;4949201;28;19969;-84
2022/04/22 13:57:23;;;;;;;;;;;15.40;61.50;;;;;;4948383;29;19918;-86
2022/04/22 13:59:49;;;;;;;;;;;15.40;61.50;;;;;;4932579;29;19923;-86
2022/04/22 14:02:16;;;;;;;;;;;15.40;62.20;;;;;;4932279;29;19918;-88
2022/04/22 14:04:42;;;;;;;;;;;15.40;61.80;;;;;;4933968;29;19925;-86
2022/04/22 14:07:08;;;;;;;;;;;15.40;61.80;;;;;;4933235;28;19914;-85
2022/04/22 14:09:35;;;;;;;;;;;15.40;61.80;;;;;;4949654;28;19972;-89
2022/04/22 14:12:01;;;;;;;;;;;15.40;62.00;;;;;;4948738;29;19937;-88
2022/04/22 14:14:27;;;;;;;;;;;15.40;62.00;;;;;;4939850;29;19918;-87
2022/04/22 14:16:53;;;;;;;;;;;15.40;62.00;;;;;;4954606;28;19977;-88
2022/04/22 14:19:20;;;;;;;;;;;15.40;62.00;;;;;;4949716;28;19925;-89
2022/04/22 14:21:46;;;;;;;;;;;15.30;61.90;;;;;;4948770;29;19918;-90
2022/04/22 14:24:12;;;;;;;;;;;15.30;61.80;;;;;;4967912;28;19973;-90
2022/04/22 14:26:39;;;;;;;;;;;15.40;61.80;;;;;;4937607;29;21098;-89
2022/04/22 14:29:06;;;;;;;;;;;15.30;61.90;;;;;;4937958;29;19929;-88
2022/04/22 14:31:32;;;;;;;;;;;15.30;61.80;;;;;;4965717;28;19997;-90
2022/04/22 14:33:58;;;;;;;;;;;15.30;61.60;;;;;;4933613;28;19921;-89
2022/04/22 14:36:23;;;;;;;;;;;15.40;61.60;;;;;;4964697;28;19910;-89
2022/04/22 14:38:49;;;;;;;;;;;15.40;61.70;;;;;;4955872;28;19923;-88
2022/04/22 14:41:15;;;;;;;;;;;15.30;61.60;;;;;;4933946;29;19922;-89
2022/04/22 14:43:41;;;;;;;;;;;15.40;61.60;;;;;;4949422;29;19919;-88
2022/04/22 14:46:07;;;;;;;;;;;15.30;61.60;;;;;;4953844;28;19925;-87
2022/04/22 14:48:33;;;;;;;;;;;15.30;61.70;;;;;;4935087;29;19919;-89
2022/04/22 14:50:59;;;;;;;;;;;15.40;61.70;;;;;;4940513;28;19930;-89
2022/04/22 14:53:25;;;;;;;;;;;15.30;61.60;;;;;;4949703;28;19962;-89
2022/04/22 14:55:51;;;;;;;;;;;15.40;61.70;;;;;;4947050;29;19924;-88
2022/04/22 14:58:17;;;;;;;;;;;15.40;61.70;;;;;;4932035;29;19928;-90
2022/04/22 15:00:43;;;;;;;;;;;15.40;61.70;;;;;;4949016;29;19919;-90
2022/04/22 15:03:10;;;;;;;;;;;15.30;61.70;;;;;;4947381;29;20628;-87
2022/04/22 15:05:36;;;;;;;;;;;15.40;61.70;;;;;;4947639;29;19922;-89
2022/04/22 15:08:02;;;;;;;;;;;15.40;61.60;;;;;;4931302;29;19918;-89
2022/04/22 15:10:28;;;;;;;;;;;15.40;61.50;;;;;;4930746;29;20025;-89
2022/04/22 15:12:57;;;;;;;;;;;15.30;61.50;;;;;;4947580;28;19920;-87
2022/04/22 15:15:23;;;;;;;;;;;15.40;61.60;;;;;;4915527;29;19915;-89
2022/04/22 15:26:15;;;;;;;;;;;15.30;61.60;;;;;;4904397;29;20331;-89
2022/04/22 15:28:47;;;;;;;;;;;15.30;61.50;;;;;;4912390;29;20038;-86
2022/04/22 15:31:13;;;;;;;;;;;15.30;61.30;;;;;;4883626;29;20352;-83
2022/04/22 15:33:41;;;;;;;;;;;15.30;61.50;;;;;;4881151;29;19915;-85
2022/04/22 15:36:07;;;;;;;;;;;15.20;61.70;;;;;;4873286;29;20375;-84
2022/04/22 15:38:34;;;;;;;;;;;15.20;61.80;;;;;;4891222;29;19944;-83
2022/04/22 15:41:00;;;;;;;;;;;15.20;61.80;;;;;;4890950;29;20423;-84